sensor_id;sensor_type;location;lat;lon;timestamp;P1;durP1;ratioP1;P2;durP2;ratioP2
72569;SDS011;60594;50.204;8.844;2023-11-19T00:00:59;11.60;;;5.88;;
72569;SDS011;60594;50.204;8.844;2023-11-19T00:03:46;10.20;;;5.45;;
72569;SDS011;60594;50.204;8.844;2023-11-19T00:06:12;10.65;;;5.40;;
72569;SDS011;60594;50.204;8.844;2023-11-19T00:08:39;12.20;;;6.20;;
72569;SDS011;60594;50.204;8.844;2023-11-19T00:11:05;13.38;;;5.70;;
72569;SDS011;60594;50.204;8.844;2023-11-19T00:13:32;10.85;;;5.65;;
72569;SDS011;60594;50.204;8.844;2023-11-19T00:15:58;11.43;;;6.38;;
72569;SDS011;60594;50.204;8.844;2023-11-19T00:18:25;10.93;;;6.30;;
72569;SDS011;60594;50.204;8.844;2023-11-19T00:20:51;10.43;;;5.50;;
72569;SDS011;60594;50.204;8.844;2023-11-19T00:23:18;11.80;;;6.25;;
72569;SDS011;60594;50.204;8.844;2023-11-19T00:25:44;11.05;;;5.65;;
72569;SDS011;60594;50.204;8.844;2023-11-19T00:28:11;11.32;;;5.90;;
72569;SDS011;60594;50.204;8.844;2023-11-19T00:30:37;12.25;;;6.28;;
72569;SDS011;60594;50.204;8.844;2023-11-19T00:33:03;15.55;;;6.07;;
72569;SDS011;60594;50.204;8.844;2023-11-19T00:35:31;11.90;;;5.90;;
72569;SDS011;60594;50.204;8.844;2023-11-19T00:37:58;11.52;;;5.82;;
72569;SDS011;60594;50.204;8.844;2023-11-19T00:40:24;11.80;;;5.93;;
72569;SDS011;60594;50.204;8.844;2023-11-19T00:42:51;11.43;;;5.57;;
72569;SDS011;60594;50.204;8.844;2023-11-19T00:45:18;12.40;;;5.72;;
72569;SDS011;60594;50.204;8.844;2023-11-19T00:47:44;11.52;;;6.13;;
72569;SDS011;60594;50.204;8.844;2023-11-19T00:50:10;13.52;;;6.43;;
72569;SDS011;60594;50.204;8.844;2023-11-19T00:52:37;12.35;;;6.50;;
72569;SDS011;60594;50.204;8.844;2023-11-19T00:55:04;12.60;;;6.28;;
72569;SDS011;60594;50.204;8.844;2023-11-19T00:57:31;11.63;;;5.55;;
72569;SDS011;60594;50.204;8.844;2023-11-19T01:00:01;12.15;;;6.07;;
72569;SDS011;60594;50.204;8.844;2023-11-19T01:02:35;13.93;;;6.80;;
72569;SDS011;60594;50.204;8.844;2023-11-19T01:05:01;12.35;;;6.00;;
72569;SDS011;60594;50.204;8.844;2023-11-19T01:07:29;10.27;;;5.55;;
72569;SDS011;60594;50.204;8.844;2023-11-19T01:09:55;13.07;;;6.05;;
72569;SDS011;60594;50.204;8.844;2023-11-19T01:12:22;14.35;;;6.10;;
72569;SDS011;60594;50.204;8.844;2023-11-19T01:14:48;17.50;;;6.10;;
72569;SDS011;60594;50.204;8.844;2023-11-19T01:17:15;10.00;;;5.32;;
72569;SDS011;60594;50.204;8.844;2023-11-19T01:19:42;12.82;;;6.07;;
72569;SDS011;60594;50.204;8.844;2023-11-19T01:22:09;10.63;;;6.32;;
72569;SDS011;60594;50.204;8.844;2023-11-19T01:24:35;12.20;;;6.32;;
72569;SDS011;60594;50.204;8.844;2023-11-19T01:27:02;12.18;;;5.40;;
72569;SDS011;60594;50.204;8.844;2023-11-19T01:29:28;10.38;;;5.43;;
72569;SDS011;60594;50.204;8.844;2023-11-19T01:31:54;10.05;;;5.90;;
72569;SDS011;60594;50.204;8.844;2023-11-19T01:34:21;11.50;;;5.68;;
72569;SDS011;60594;50.204;8.844;2023-11-19T01:36:47;10.52;;;5.43;;
72569;SDS011;60594;50.204;8.844;2023-11-19T01:39:15;11.32;;;5.78;;
72569;SDS011;60594;50.204;8.844;2023-11-19T01:41:46;9.43;;;5.32;;
72569;SDS011;60594;50.204;8.844;2023-11-19T01:44:12;10.07;;;5.38;;
72569;SDS011;60594;50.204;8.844;2023-11-19T01:46:42;9.68;;;4.82;;
72569;SDS011;60594;50.204;8.844;2023-11-19T01:49:11;10.23;;;5.10;;
72569;SDS011;60594;50.204;8.844;2023-11-19T01:51:40;9.55;;;4.75;;
72569;SDS011;60594;50.204;8.844;2023-11-19T01:54:07;10.02;;;5.13;;
72569;SDS011;60594;50.204;8.844;2023-11-19T01:56:34;11.20;;;4.70;;
72569;SDS011;60594;50.204;8.844;2023-11-19T01:59:02;9.40;;;4.75;;
72569;SDS011;60594;50.204;8.844;2023-11-19T02:01:29;9.55;;;4.50;;
72569;SDS011;60594;50.204;8.844;2023-11-19T02:06:25;8.07;;;4.50;;
72569;SDS011;60594;50.204;8.844;2023-11-19T02:08:52;9.98;;;4.60;;
72569;SDS011;60594;50.204;8.844;2023-11-19T02:11:18;8.82;;;4.30;;
72569;SDS011;60594;50.204;8.844;2023-11-19T02:13:45;10.88;;;4.70;;
72569;SDS011;60594;50.204;8.844;2023-11-19T02:16:11;8.38;;;4.65;;
72569;SDS011;60594;50.204;8.844;2023-11-19T02:18:38;8.23;;;4.45;;
72569;SDS011;60594;50.204;8.844;2023-11-19T02:21:04;8.52;;;4.78;;
72569;SDS011;60594;50.204;8.844;2023-11-19T02:23:31;9.20;;;4.45;;
72569;SDS011;60594;50.204;8.844;2023-11-19T02:28:48;8.20;;;4.25;;
72569;SDS011;60594;50.204;8.844;2023-11-19T02:31:16;8.10;;;4.18;;
72569;SDS011;60594;50.204;8.844;2023-11-19T02:33:42;8.13;;;3.95;;
72569;SDS011;60594;50.204;8.844;2023-11-19T02:36:09;9.18;;;4.03;;
72569;SDS011;60594;50.204;8.844;2023-11-19T02:38:36;8.02;;;4.00;;
72569;SDS011;60594;50.204;8.844;2023-11-19T02:41:04;8.48;;;3.75;;
72569;SDS011;60594;50.204;8.844;2023-11-19T02:43:33;7.25;;;3.90;;
72569;SDS011;60594;50.204;8.844;2023-11-19T02:46:01;6.38;;;3.40;;
72569;SDS011;60594;50.204;8.844;2023-11-19T02:48:29;8.77;;;3.95;;
72569;SDS011;60594;50.204;8.844;2023-11-19T02:50:56;7.20;;;3.53;;
72569;SDS011;60594;50.204;8.844;2023-11-19T02:53:24;7.45;;;3.67;;
72569;SDS011;60594;50.204;8.844;2023-11-19T02:55:53;7.90;;;3.70;;
72569;SDS011;60594;50.204;8.844;2023-11-19T02:58:27;7.72;;;3.75;;
72569;SDS011;60594;50.204;8.844;2023-11-19T03:00:54;7.20;;;4.03;;
72569;SDS011;60594;50.204;8.844;2023-11-19T03:03:25;7.45;;;3.80;;
72569;SDS011;60594;50.204;8.844;2023-11-19T03:05:57;6.60;;;3.05;;
72569;SDS011;60594;50.204;8.844;2023-11-19T03:08:23;6.57;;;3.67;;
72569;SDS011;60594;50.204;8.844;2023-11-19T03:10:50;7.30;;;3.90;;
72569;SDS011;60594;50.204;8.844;2023-11-19T03:13:16;6.32;;;3.03;;
72569;SDS011;60594;50.204;8.844;2023-11-19T03:15:44;6.22;;;3.33;;
72569;SDS011;60594;50.204;8.844;2023-11-19T03:18:10;6.95;;;3.33;;
72569;SDS011;60594;50.204;8.844;2023-11-19T03:20:37;6.15;;;3.28;;
72569;SDS011;60594;50.204;8.844;2023-11-19T03:23:03;7.78;;;3.45;;
72569;SDS011;60594;50.204;8.844;2023-11-19T03:25:30;7.22;;;3.10;;
72569;SDS011;60594;50.204;8.844;2023-11-19T03:28:01;8.32;;;3.45;;
72569;SDS011;60594;50.204;8.844;2023-11-19T03:30:30;6.00;;;2.97;;
72569;SDS011;60594;50.204;8.844;2023-11-19T03:32:57;5.68;;;2.80;;
72569;SDS011;60594;50.204;8.844;2023-11-19T03:35:24;6.35;;;2.97;;
72569;SDS011;60594;50.204;8.844;2023-11-19T03:37:50;8.05;;;3.42;;
72569;SDS011;60594;50.204;8.844;2023-11-19T03:40:18;7.03;;;3.60;;
72569;SDS011;60594;50.204;8.844;2023-11-19T03:42:45;6.10;;;3.30;;
72569;SDS011;60594;50.204;8.844;2023-11-19T03:45:12;7.18;;;3.28;;
72569;SDS011;60594;50.204;8.844;2023-11-19T03:47:39;5.50;;;2.72;;
72569;SDS011;60594;50.204;8.844;2023-11-19T03:50:06;5.32;;;2.67;;
72569;SDS011;60594;50.204;8.844;2023-11-19T03:52:36;6.15;;;2.97;;
72569;SDS011;60594;50.204;8.844;2023-11-19T03:55:03;5.78;;;2.97;;
72569;SDS011;60594;50.204;8.844;2023-11-19T03:59:58;5.30;;;2.50;;
72569;SDS011;60594;50.204;8.844;2023-11-19T04:02:24;4.70;;;2.30;;
72569;SDS011;60594;50.204;8.844;2023-11-19T04:04:55;5.28;;;2.50;;
72569;SDS011;60594;50.204;8.844;2023-11-19T04:07:21;5.88;;;2.70;;
72569;SDS011;60594;50.204;8.844;2023-11-19T04:09:48;5.40;;;2.70;;
72569;SDS011;60594;50.204;8.844;2023-11-19T04:12:14;5.00;;;2.40;;
72569;SDS011;60594;50.204;8.844;2023-11-19T04:14:41;6.40;;;3.38;;
72569;SDS011;60594;50.204;8.844;2023-11-19T04:17:08;5.05;;;2.85;;
72569;SDS011;60594;50.204;8.844;2023-11-19T04:19:34;5.25;;;2.97;;
72569;SDS011;60594;50.204;8.844;2023-11-19T04:22:01;5.88;;;2.90;;
72569;SDS011;60594;50.204;8.844;2023-11-19T04:24:28;5.90;;;3.38;;
72569;SDS011;60594;50.204;8.844;2023-11-19T04:26:54;6.45;;;3.25;;
72569;SDS011;60594;50.204;8.844;2023-11-19T04:29:21;5.45;;;3.10;;
72569;SDS011;60594;50.204;8.844;2023-11-19T04:31:48;6.05;;;3.13;;
72569;SDS011;60594;50.204;8.844;2023-11-19T04:34:15;5.43;;;2.88;;
72569;SDS011;60594;50.204;8.844;2023-11-19T04:36:41;5.50;;;2.95;;
72569;SDS011;60594;50.204;8.844;2023-11-19T04:42:08;5.07;;;2.85;;
72569;SDS011;60594;50.204;8.844;2023-11-19T04:44:34;6.00;;;2.92;;
72569;SDS011;60594;50.204;8.844;2023-11-19T04:47:01;5.65;;;2.78;;
72569;SDS011;60594;50.204;8.844;2023-11-19T04:49:27;5.57;;;2.90;;
72569;SDS011;60594;50.204;8.844;2023-11-19T04:51:54;5.78;;;3.00;;
72569;SDS011;60594;50.204;8.844;2023-11-19T04:54:20;5.05;;;2.97;;
72569;SDS011;60594;50.204;8.844;2023-11-19T04:56:46;5.93;;;2.83;;
72569;SDS011;60594;50.204;8.844;2023-11-19T04:59:16;5.80;;;2.72;;
72569;SDS011;60594;50.204;8.844;2023-11-19T05:01:46;4.65;;;2.60;;
72569;SDS011;60594;50.204;8.844;2023-11-19T05:04:13;4.88;;;2.88;;
72569;SDS011;60594;50.204;8.844;2023-11-19T05:06:39;5.53;;;2.80;;
72569;SDS011;60594;50.204;8.844;2023-11-19T05:09:05;5.53;;;2.97;;
72569;SDS011;60594;50.204;8.844;2023-11-19T05:11:35;5.25;;;2.78;;
72569;SDS011;60594;50.204;8.844;2023-11-19T05:14:04;5.35;;;3.08;;
72569;SDS011;60594;50.204;8.844;2023-11-19T05:16:31;5.65;;;2.83;;
72569;SDS011;60594;50.204;8.844;2023-11-19T05:18:58;5.28;;;3.38;;
72569;SDS011;60594;50.204;8.844;2023-11-19T05:21:24;5.60;;;3.30;;
72569;SDS011;60594;50.204;8.844;2023-11-19T05:23:51;5.30;;;3.03;;
72569;SDS011;60594;50.204;8.844;2023-11-19T05:26:20;4.97;;;2.47;;
72569;SDS011;60594;50.204;8.844;2023-11-19T05:28:48;5.63;;;2.92;;
72569;SDS011;60594;50.204;8.844;2023-11-19T05:31:15;4.88;;;2.75;;
72569;SDS011;60594;50.204;8.844;2023-11-19T05:33:43;4.53;;;2.67;;
72569;SDS011;60594;50.204;8.844;2023-11-19T05:36:10;4.72;;;2.50;;
72569;SDS011;60594;50.204;8.844;2023-11-19T05:38:38;4.82;;;2.50;;
72569;SDS011;60594;50.204;8.844;2023-11-19T05:41:05;5.15;;;2.78;;
72569;SDS011;60594;50.204;8.844;2023-11-19T05:43:32;5.50;;;2.70;;
72569;SDS011;60594;50.204;8.844;2023-11-19T05:45:59;6.28;;;3.60;;
72569;SDS011;60594;50.204;8.844;2023-11-19T05:48:25;4.15;;;2.13;;
72569;SDS011;60594;50.204;8.844;2023-11-19T05:50:52;4.78;;;2.47;;
72569;SDS011;60594;50.204;8.844;2023-11-19T05:53:19;4.75;;;2.25;;
72569;SDS011;60594;50.204;8.844;2023-11-19T05:55:46;4.55;;;2.40;;
72569;SDS011;60594;50.204;8.844;2023-11-19T05:58:16;5.53;;;2.58;;
72569;SDS011;60594;50.204;8.844;2023-11-19T06:00:42;5.72;;;2.67;;
72569;SDS011;60594;50.204;8.844;2023-11-19T06:03:09;5.20;;;2.92;;
72569;SDS011;60594;50.204;8.844;2023-11-19T06:05:35;5.65;;;2.80;;
72569;SDS011;60594;50.204;8.844;2023-11-19T06:08:02;4.30;;;2.22;;
72569;SDS011;60594;50.204;8.844;2023-11-19T06:10:28;4.82;;;2.72;;
72569;SDS011;60594;50.204;8.844;2023-11-19T06:13:00;4.85;;;2.40;;
72569;SDS011;60594;50.204;8.844;2023-11-19T06:15:26;6.53;;;2.90;;
72569;SDS011;60594;50.204;8.844;2023-11-19T06:17:56;5.38;;;2.85;;
72569;SDS011;60594;50.204;8.844;2023-11-19T06:20:25;5.70;;;2.85;;
72569;SDS011;60594;50.204;8.844;2023-11-19T06:22:51;7.32;;;3.63;;
72569;SDS011;60594;50.204;8.844;2023-11-19T06:25:17;5.70;;;3.00;;
72569;SDS011;60594;50.204;8.844;2023-11-19T06:27:44;6.53;;;3.53;;
72569;SDS011;60594;50.204;8.844;2023-11-19T06:30:11;8.07;;;3.85;;
72569;SDS011;60594;50.204;8.844;2023-11-19T06:32:38;6.45;;;4.25;;
72569;SDS011;60594;50.204;8.844;2023-11-19T06:35:04;6.13;;;3.65;;
72569;SDS011;60594;50.204;8.844;2023-11-19T06:37:31;6.70;;;3.90;;
72569;SDS011;60594;50.204;8.844;2023-11-19T06:39:58;6.60;;;4.00;;
72569;SDS011;60594;50.204;8.844;2023-11-19T06:42:25;6.70;;;3.55;;
72569;SDS011;60594;50.204;8.844;2023-11-19T06:44:51;7.63;;;3.90;;
72569;SDS011;60594;50.204;8.844;2023-11-19T06:47:18;6.60;;;3.45;;
72569;SDS011;60594;50.204;8.844;2023-11-19T06:49:44;8.30;;;3.90;;
72569;SDS011;60594;50.204;8.844;2023-11-19T06:52:11;6.32;;;3.95;;
72569;SDS011;60594;50.204;8.844;2023-11-19T06:54:40;6.57;;;3.60;;
72569;SDS011;60594;50.204;8.844;2023-11-19T06:57:07;6.88;;;4.32;;
72569;SDS011;60594;50.204;8.844;2023-11-19T06:59:35;6.93;;;4.05;;
72569;SDS011;60594;50.204;8.844;2023-11-19T07:02:01;7.43;;;4.22;;
72569;SDS011;60594;50.204;8.844;2023-11-19T07:04:28;7.60;;;3.97;;
72569;SDS011;60594;50.204;8.844;2023-11-19T07:06:54;6.88;;;4.30;;
72569;SDS011;60594;50.204;8.844;2023-11-19T07:09:21;7.07;;;4.35;;
72569;SDS011;60594;50.204;8.844;2023-11-19T07:11:49;7.22;;;3.65;;
72569;SDS011;60594;50.204;8.844;2023-11-19T07:14:18;6.85;;;3.85;;
72569;SDS011;60594;50.204;8.844;2023-11-19T07:16:44;6.82;;;4.55;;
72569;SDS011;60594;50.204;8.844;2023-11-19T07:19:12;6.90;;;3.60;;
72569;SDS011;60594;50.204;8.844;2023-11-19T07:21:41;7.05;;;3.90;;
72569;SDS011;60594;50.204;8.844;2023-11-19T07:24:10;6.32;;;3.78;;
72569;SDS011;60594;50.204;8.844;2023-11-19T07:26:43;7.70;;;3.83;;
72569;SDS011;60594;50.204;8.844;2023-11-19T07:29:10;7.40;;;3.80;;
72569;SDS011;60594;50.204;8.844;2023-11-19T07:31:37;7.68;;;3.63;;
72569;SDS011;60594;50.204;8.844;2023-11-19T07:34:03;6.78;;;4.00;;
72569;SDS011;60594;50.204;8.844;2023-11-19T07:36:31;7.00;;;3.25;;
72569;SDS011;60594;50.204;8.844;2023-11-19T07:38:58;6.15;;;3.30;;
72569;SDS011;60594;50.204;8.844;2023-11-19T07:41:25;5.65;;;3.05;;
72569;SDS011;60594;50.204;8.844;2023-11-19T07:43:52;6.63;;;3.47;;
72569;SDS011;60594;50.204;8.844;2023-11-19T07:46:18;5.60;;;3.25;;
72569;SDS011;60594;50.204;8.844;2023-11-19T07:48:48;6.10;;;3.60;;
72569;SDS011;60594;50.204;8.844;2023-11-19T07:51:14;6.25;;;3.28;;
72569;SDS011;60594;50.204;8.844;2023-11-19T07:53:41;5.70;;;3.33;;
72569;SDS011;60594;50.204;8.844;2023-11-19T07:56:08;5.85;;;3.10;;
72569;SDS011;60594;50.204;8.844;2023-11-19T07:58:35;6.05;;;3.05;;
72569;SDS011;60594;50.204;8.844;2023-11-19T08:01:02;5.53;;;3.03;;
72569;SDS011;60594;50.204;8.844;2023-11-19T08:03:29;6.90;;;3.60;;
72569;SDS011;60594;50.204;8.844;2023-11-19T08:05:56;6.75;;;3.50;;
72569;SDS011;60594;50.204;8.844;2023-11-19T08:08:25;6.90;;;3.75;;
72569;SDS011;60594;50.204;8.844;2023-11-19T08:10:52;8.02;;;3.35;;
72569;SDS011;60594;50.204;8.844;2023-11-19T08:13:19;5.60;;;2.83;;
72569;SDS011;60594;50.204;8.844;2023-11-19T08:15:46;7.05;;;3.33;;
72569;SDS011;60594;50.204;8.844;2023-11-19T08:18:13;6.45;;;3.42;;
72569;SDS011;60594;50.204;8.844;2023-11-19T08:20:39;5.97;;;2.50;;
72569;SDS011;60594;50.204;8.844;2023-11-19T08:23:07;5.95;;;3.13;;
72569;SDS011;60594;50.204;8.844;2023-11-19T08:25:33;5.55;;;2.70;;
72569;SDS011;60594;50.204;8.844;2023-11-19T08:28:00;4.65;;;2.67;;
72569;SDS011;60594;50.204;8.844;2023-11-19T08:30:27;5.53;;;2.67;;
72569;SDS011;60594;50.204;8.844;2023-11-19T08:32:53;5.20;;;2.53;;
72569;SDS011;60594;50.204;8.844;2023-11-19T08:35:19;4.93;;;2.70;;
72569;SDS011;60594;50.204;8.844;2023-11-19T08:37:46;4.93;;;2.92;;
72569;SDS011;60594;50.204;8.844;2023-11-19T08:40:13;5.70;;;3.15;;
72569;SDS011;60594;50.204;8.844;2023-11-19T08:42:40;4.50;;;2.65;;
72569;SDS011;60594;50.204;8.844;2023-11-19T08:45:08;4.78;;;2.70;;
72569;SDS011;60594;50.204;8.844;2023-11-19T08:47:38;5.05;;;2.80;;
72569;SDS011;60594;50.204;8.844;2023-11-19T08:50:04;5.55;;;3.05;;
72569;SDS011;60594;50.204;8.844;2023-11-19T08:52:31;5.97;;;3.08;;
72569;SDS011;60594;50.204;8.844;2023-11-19T08:54:58;5.53;;;3.03;;
72569;SDS011;60594;50.204;8.844;2023-11-19T08:57:24;5.50;;;3.30;;
72569;SDS011;60594;50.204;8.844;2023-11-19T08:59:50;5.63;;;3.45;;
72569;SDS011;60594;50.204;8.844;2023-11-19T09:02:17;5.65;;;2.97;;
72569;SDS011;60594;50.204;8.844;2023-11-19T09:04:44;5.07;;;2.58;;
72569;SDS011;60594;50.204;8.844;2023-11-19T09:07:11;4.97;;;2.78;;
72569;SDS011;60594;50.204;8.844;2023-11-19T09:09:37;5.45;;;2.33;;
72569;SDS011;60594;50.204;8.844;2023-11-19T09:12:04;4.55;;;2.72;;
72569;SDS011;60594;50.204;8.844;2023-11-19T09:14:31;5.53;;;3.08;;
72569;SDS011;60594;50.204;8.844;2023-11-19T09:16:57;7.20;;;3.15;;
72569;SDS011;60594;50.204;8.844;2023-11-19T09:19:24;5.97;;;2.55;;
72569;SDS011;60594;50.204;8.844;2023-11-19T09:21:52;5.15;;;3.00;;
72569;SDS011;60594;50.204;8.844;2023-11-19T09:24:19;5.15;;;2.88;;
72569;SDS011;60594;50.204;8.844;2023-11-19T09:26:46;4.65;;;2.38;;
72569;SDS011;60594;50.204;8.844;2023-11-19T09:29:12;6.13;;;3.45;;
72569;SDS011;60594;50.204;8.844;2023-11-19T09:31:40;8.00;;;3.75;;
72569;SDS011;60594;50.204;8.844;2023-11-19T09:34:07;7.55;;;3.53;;
72569;SDS011;60594;50.204;8.844;2023-11-19T09:36:33;5.35;;;3.10;;
72569;SDS011;60594;50.204;8.844;2023-11-19T09:39:00;5.28;;;2.65;;
72569;SDS011;60594;50.204;8.844;2023-11-19T09:41:28;6.68;;;2.28;;
72569;SDS011;60594;50.204;8.844;2023-11-19T09:43:56;4.25;;;1.80;;
72569;SDS011;60594;50.204;8.844;2023-11-19T09:46:23;4.35;;;2.15;;
72569;SDS011;60594;50.204;8.844;2023-11-19T09:48:51;5.43;;;2.30;;
72569;SDS011;60594;50.204;8.844;2023-11-19T09:51:20;4.07;;;2.20;;
72569;SDS011;60594;50.204;8.844;2023-11-19T09:53:48;5.20;;;2.33;;
72569;SDS011;60594;50.204;8.844;2023-11-19T09:56:15;8.30;;;2.30;;
72569;SDS011;60594;50.204;8.844;2023-11-19T09:58:45;4.97;;;2.00;;
72569;SDS011;60594;50.204;8.844;2023-11-19T10:01:12;4.57;;;1.83;;
72569;SDS011;60594;50.204;8.844;2023-11-19T10:03:40;5.20;;;2.08;;
72569;SDS011;60594;50.204;8.844;2023-11-19T10:06:07;4.93;;;1.50;;
72569;SDS011;60594;50.204;8.844;2023-11-19T10:08:36;3.70;;;2.28;;
72569;SDS011;60594;50.204;8.844;2023-11-19T10:11:03;4.00;;;1.50;;
72569;SDS011;60594;50.204;8.844;2023-11-19T10:13:30;6.72;;;1.60;;
72569;SDS011;60594;50.204;8.844;2023-11-19T10:15:56;5.10;;;1.40;;
72569;SDS011;60594;50.204;8.844;2023-11-19T10:18:26;5.63;;;1.38;;
72569;SDS011;60594;50.204;8.844;2023-11-19T10:20:53;6.53;;;1.95;;
72569;SDS011;60594;50.204;8.844;2023-11-19T10:25:47;4.22;;;1.35;;
72569;SDS011;60594;50.204;8.844;2023-11-19T10:28:15;4.75;;;1.30;;
72569;SDS011;60594;50.204;8.844;2023-11-19T10:33:09;3.75;;;1.10;;
72569;SDS011;60594;50.204;8.844;2023-11-19T10:35:50;6.32;;;1.40;;
72569;SDS011;60594;50.204;8.844;2023-11-19T10:38:21;4.25;;;1.10;;
72569;SDS011;60594;50.204;8.844;2023-11-19T10:40:48;5.90;;;1.70;;
72569;SDS011;60594;50.204;8.844;2023-11-19T10:43:17;5.80;;;1.25;;
72569;SDS011;60594;50.204;8.844;2023-11-19T10:45:49;7.68;;;1.30;;
72569;SDS011;60594;50.204;8.844;2023-11-19T10:48:17;4.65;;;1.35;;
72569;SDS011;60594;50.204;8.844;2023-11-19T10:50:44;4.82;;;1.20;;
72569;SDS011;60594;50.204;8.844;2023-11-19T10:55:41;4.97;;;1.45;;
72569;SDS011;60594;50.204;8.844;2023-11-19T10:58:15;4.82;;;1.40;;
72569;SDS011;60594;50.204;8.844;2023-11-19T11:03:17;5.50;;;1.30;;
72569;SDS011;60594;50.204;8.844;2023-11-19T11:05:49;5.75;;;1.30;;
72569;SDS011;60594;50.204;8.844;2023-11-19T11:08:17;6.88;;;1.85;;
72569;SDS011;60594;50.204;8.844;2023-11-19T11:10:52;4.40;;;1.17;;
72569;SDS011;60594;50.204;8.844;2023-11-19T11:13:20;5.68;;;1.27;;
72569;SDS011;60594;50.204;8.844;2023-11-19T11:15:49;7.72;;;1.67;;
72569;SDS011;60594;50.204;8.844;2023-11-19T11:18:16;6.65;;;1.50;;
72569;SDS011;60594;50.204;8.844;2023-11-19T11:20:44;4.30;;;1.35;;
72569;SDS011;60594;50.204;8.844;2023-11-19T11:28:58;4.82;;;1.08;;
72569;SDS011;60594;50.204;8.844;2023-11-19T11:37:36;5.00;;;1.30;;
72569;SDS011;60594;50.204;8.844;2023-11-19T11:40:06;4.85;;;1.20;;
72569;SDS011;60594;50.204;8.844;2023-11-19T11:42:36;6.95;;;1.52;;
72569;SDS011;60594;50.204;8.844;2023-11-19T11:45:06;5.75;;;1.35;;
72569;SDS011;60594;50.204;8.844;2023-11-19T11:50:13;4.22;;;1.30;;
72569;SDS011;60594;50.204;8.844;2023-11-19T11:57:52;7.38;;;1.42;;
72569;SDS011;60594;50.204;8.844;2023-11-19T12:00:32;9.88;;;2.38;;
72569;SDS011;60594;50.204;8.844;2023-11-19T12:03:06;6.30;;;2.03;;
72569;SDS011;60594;50.204;8.844;2023-11-19T12:08:07;6.22;;;1.90;;
72569;SDS011;60594;50.204;8.844;2023-11-19T12:10:37;10.45;;;1.95;;
72569;SDS011;60594;50.204;8.844;2023-11-19T12:13:11;8.57;;;2.03;;
72569;SDS011;60594;50.204;8.844;2023-11-19T12:18:26;8.73;;;1.52;;
72569;SDS011;60594;50.204;8.844;2023-11-19T12:20:55;7.85;;;1.52;;
72569;SDS011;60594;50.204;8.844;2023-11-19T12:23:22;9.63;;;1.80;;
72569;SDS011;60594;50.204;8.844;2023-11-19T12:25:50;9.70;;;1.67;;
72569;SDS011;60594;50.204;8.844;2023-11-19T12:28:16;7.40;;;1.40;;
72569;SDS011;60594;50.204;8.844;2023-11-19T12:30:43;7.93;;;1.75;;
72569;SDS011;60594;50.204;8.844;2023-11-19T12:33:10;7.28;;;1.75;;
72569;SDS011;60594;50.204;8.844;2023-11-19T12:35:41;10.32;;;1.85;;
72569;SDS011;60594;50.204;8.844;2023-11-19T12:38:19;7.15;;;1.80;;
72569;SDS011;60594;50.204;8.844;2023-11-19T12:40:47;6.78;;;1.30;;
72569;SDS011;60594;50.204;8.844;2023-11-19T12:43:22;12.82;;;1.92;;
72569;SDS011;60594;50.204;8.844;2023-11-19T12:45:49;6.22;;;1.20;;
72569;SDS011;60594;50.204;8.844;2023-11-19T12:48:15;7.63;;;1.50;;
72569;SDS011;60594;50.204;8.844;2023-11-19T12:53:21;6.32;;;1.20;;
72569;SDS011;60594;50.204;8.844;2023-11-19T12:55:48;6.25;;;1.10;;
72569;SDS011;60594;50.204;8.844;2023-11-19T12:58:36;6.07;;;1.60;;
72569;SDS011;60594;50.204;8.844;2023-11-19T13:01:03;6.90;;;1.65;;
72569;SDS011;60594;50.204;8.844;2023-11-19T13:03:31;5.15;;;1.23;;
72569;SDS011;60594;50.204;8.844;2023-11-19T13:08:39;6.07;;;0.98;;
72569;SDS011;60594;50.204;8.844;2023-11-19T13:11:07;7.45;;;1.23;;
72569;SDS011;60594;50.204;8.844;2023-11-19T13:16:20;4.70;;;1.20;;
72569;SDS011;60594;50.204;8.844;2023-11-19T13:18:47;7.43;;;1.30;;
72569;SDS011;60594;50.204;8.844;2023-11-19T13:21:13;7.43;;;1.95;;
72569;SDS011;60594;50.204;8.844;2023-11-19T13:23:40;5.00;;;1.20;;
72569;SDS011;60594;50.204;8.844;2023-11-19T13:26:06;6.43;;;1.27;;
72569;SDS011;60594;50.204;8.844;2023-11-19T13:28:33;7.28;;;1.42;;
72569;SDS011;60594;50.204;8.844;2023-11-19T13:31:00;5.95;;;1.00;;
72569;SDS011;60594;50.204;8.844;2023-11-19T13:33:26;5.60;;;1.20;;
72569;SDS011;60594;50.204;8.844;2023-11-19T13:35:52;5.07;;;1.15;;
72569;SDS011;60594;50.204;8.844;2023-11-19T13:38:19;4.82;;;1.30;;
72569;SDS011;60594;50.204;8.844;2023-11-19T13:40:45;8.65;;;1.80;;
72569;SDS011;60594;50.204;8.844;2023-11-19T13:43:12;7.05;;;1.73;;
72569;SDS011;60594;50.204;8.844;2023-11-19T13:45:38;5.60;;;1.63;;
72569;SDS011;60594;50.204;8.844;2023-11-19T13:48:05;5.05;;;1.00;;
72569;SDS011;60594;50.204;8.844;2023-11-19T13:50:32;6.10;;;1.10;;
72569;SDS011;60594;50.204;8.844;2023-11-19T13:53:00;4.50;;;1.30;;
72569;SDS011;60594;50.204;8.844;2023-11-19T13:55:26;5.93;;;1.58;;
72569;SDS011;60594;50.204;8.844;2023-11-19T13:57:53;4.88;;;1.00;;
72569;SDS011;60594;50.204;8.844;2023-11-19T14:00:20;6.38;;;1.60;;
72569;SDS011;60594;50.204;8.844;2023-11-19T14:02:49;5.03;;;1.10;;
72569;SDS011;60594;50.204;8.844;2023-11-19T14:05:16;4.70;;;1.30;;
72569;SDS011;60594;50.204;8.844;2023-11-19T14:07:43;9.02;;;1.15;;
72569;SDS011;60594;50.204;8.844;2023-11-19T14:10:10;3.78;;;1.15;;
72569;SDS011;60594;50.204;8.844;2023-11-19T14:12:40;6.95;;;1.27;;
72569;SDS011;60594;50.204;8.844;2023-11-19T14:15:07;4.78;;;1.35;;
72569;SDS011;60594;50.204;8.844;2023-11-19T14:17:36;5.13;;;1.27;;
72569;SDS011;60594;50.204;8.844;2023-11-19T14:20:02;6.28;;;1.00;;
72569;SDS011;60594;50.204;8.844;2023-11-19T14:22:50;9.40;;;2.38;;
72569;SDS011;60594;50.204;8.844;2023-11-19T14:25:18;10.07;;;1.70;;
72569;SDS011;60594;50.204;8.844;2023-11-19T14:27:45;7.35;;;1.30;;
72569;SDS011;60594;50.204;8.844;2023-11-19T14:30:14;5.13;;;1.20;;
72569;SDS011;60594;50.204;8.844;2023-11-19T14:32:41;5.63;;;1.50;;
72569;SDS011;60594;50.204;8.844;2023-11-19T14:35:10;6.10;;;1.05;;
72569;SDS011;60594;50.204;8.844;2023-11-19T14:37:37;4.97;;;1.13;;
72569;SDS011;60594;50.204;8.844;2023-11-19T14:40:03;5.65;;;1.40;;
72569;SDS011;60594;50.204;8.844;2023-11-19T14:42:32;4.20;;;1.20;;
72569;SDS011;60594;50.204;8.844;2023-11-19T14:44:58;7.75;;;1.98;;
72569;SDS011;60594;50.204;8.844;2023-11-19T14:47:25;6.70;;;1.33;;
72569;SDS011;60594;50.204;8.844;2023-11-19T14:49:51;6.13;;;1.45;;
72569;SDS011;60594;50.204;8.844;2023-11-19T14:52:18;5.78;;;1.17;;
72569;SDS011;60594;50.204;8.844;2023-11-19T14:54:44;7.32;;;1.65;;
72569;SDS011;60594;50.204;8.844;2023-11-19T14:57:10;8.85;;;1.38;;
72569;SDS011;60594;50.204;8.844;2023-11-19T14:59:37;4.85;;;1.45;;
72569;SDS011;60594;50.204;8.844;2023-11-19T15:02:04;6.80;;;1.50;;
72569;SDS011;60594;50.204;8.844;2023-11-19T15:04:32;6.32;;;1.25;;
72569;SDS011;60594;50.204;8.844;2023-11-19T15:07:00;5.78;;;1.33;;
72569;SDS011;60594;50.204;8.844;2023-11-19T15:09:27;5.05;;;1.10;;
72569;SDS011;60594;50.204;8.844;2023-11-19T15:11:54;3.95;;;0.90;;
72569;SDS011;60594;50.204;8.844;2023-11-19T15:14:20;6.32;;;1.00;;
72569;SDS011;60594;50.204;8.844;2023-11-19T15:16:47;7.55;;;1.17;;
72569;SDS011;60594;50.204;8.844;2023-11-19T15:19:15;6.32;;;1.55;;
72569;SDS011;60594;50.204;8.844;2023-11-19T15:21:42;7.20;;;1.23;;
72569;SDS011;60594;50.204;8.844;2023-11-19T15:24:08;4.97;;;1.20;;
72569;SDS011;60594;50.204;8.844;2023-11-19T15:26:35;6.47;;;1.35;;
72569;SDS011;60594;50.204;8.844;2023-11-19T15:29:03;6.20;;;1.40;;
72569;SDS011;60594;50.204;8.844;2023-11-19T15:31:30;7.03;;;1.52;;
72569;SDS011;60594;50.204;8.844;2023-11-19T15:33:57;4.47;;;1.33;;
72569;SDS011;60594;50.204;8.844;2023-11-19T15:36:23;7.10;;;1.90;;
72569;SDS011;60594;50.204;8.844;2023-11-19T15:38:50;6.80;;;1.30;;
72569;SDS011;60594;50.204;8.844;2023-11-19T15:41:17;7.82;;;1.60;;